Terminal Aerodrome Forecast
Issued by NWS Sterling, VA

Current Version | Previous Version | Text Only | Print | Product List | Glossary Off
Versions: 1 2 3 4 5 6 7 8 9 10 11 12 13 14 15 16 17 18 19 20 21 22

749
FTUS41 KLWX 052100 AAA
TAFDCA
TAF AMD
KDCA 052100Z 0521/0618 03007KT P6SM SCT015 BKN035
     FM060100 02006KT 6SM -SHRA OVC015
     FM060500 02005KT 5SM -SHRA OVC010
     FM060700 02007KT 3SM SHRA OVC015
     FM061200 01009KT 6SM SHRA OVC015
     FM061600 01008KT 1SM SHRA OVC008=

USA.gov is the U.S. government's official web portal to all federal, state and local government web resources and services.